createdAt,value
2022-08-17T00:00:14.688Z,63.90
2022-08-17T00:03:22.340Z,64.30
2022-08-17T00:05:56.853Z,64.70
2022-08-17T00:08:33.100Z,64.80
2022-08-17T00:11:01.215Z,64.80
2022-08-17T00:13:37.047Z,64.70
2022-08-17T00:16:14.677Z,65.00
2022-08-17T00:19:00.905Z,65.40
2022-08-17T00:21:49.178Z,65.40
2022-08-17T00:24:21.269Z,65.50
2022-08-17T00:26:48.217Z,65.50
2022-08-17T00:29:19.503Z,65.80
2022-08-17T00:31:48.531Z,65.90
2022-08-17T00:34:15.782Z,66.70
2022-08-17T00:36:42.614Z,66.10
2022-08-17T00:39:09.753Z,66.20
2022-08-17T00:41:36.802Z,66.30
2022-08-17T00:44:09.788Z,66.50
2022-08-17T00:46:43.912Z,66.50
2022-08-17T00:49:12.940Z,66.80
2022-08-17T00:51:48.690Z,66.80
2022-08-17T00:54:31.968Z,66.90
2022-08-17T00:57:11.354Z,67.00
2022-08-17T00:59:47.175Z,67.40
2022-08-17T01:02:41.667Z,67.20
2022-08-17T01:05:19.128Z,67.10
2022-08-17T01:07:48.354Z,67.30
2022-08-17T01:11:00.424Z,67.30
2022-08-17T01:13:04.660Z,67.30
2022-08-17T01:15:37.438Z,67.40
2022-08-17T01:18:11.648Z,67.70
2022-08-17T01:20:49.142Z,67.90
2022-08-17T01:23:20.516Z,68.00
2022-08-17T01:25:55.686Z,67.80
2022-08-17T01:28:52.539Z,68.00
2022-08-17T01:31:15.497Z,67.80
2022-08-17T01:33:42.664Z,67.80
2022-08-17T01:36:10.122Z,68.00
2022-08-17T01:38:39.164Z,68.00
2022-08-17T01:41:12.605Z,68.10
2022-08-17T01:44:00.764Z,68.30
2022-08-17T01:46:34.105Z,68.80
2022-08-17T01:49:06.340Z,68.60
2022-08-17T01:51:33.922Z,68.60
2022-08-17T01:54:06.170Z,68.40
2022-08-17T01:56:35.737Z,68.70
2022-08-17T01:59:03.297Z,68.70
2022-08-17T02:01:33.733Z,68.70
2022-08-17T02:04:01.891Z,69.60
2022-08-17T02:06:45.097Z,68.80
2022-08-17T02:09:23.984Z,68.80
2022-08-17T02:11:56.409Z,68.70
2022-08-17T02:14:24.904Z,68.80
2022-08-17T02:16:53.227Z,68.80
2022-08-17T02:19:20.570Z,69.00
2022-08-17T02:21:52.217Z,69.10
2022-08-17T02:24:59.778Z,69.40
2022-08-17T02:27:22.368Z,69.90
2022-08-17T02:29:49.392Z,69.40
2022-08-17T02:32:28.203Z,69.50
2022-08-17T02:34:58.096Z,69.80
2022-08-17T02:37:26.821Z,69.70
2022-08-17T02:39:56.815Z,69.80
2022-08-17T02:42:38.225Z,69.90
2022-08-17T02:45:15.918Z,70.10
2022-08-17T02:47:44.191Z,70.00
2022-08-17T02:50:14.521Z,70.00
2022-08-17T02:52:44.632Z,70.00
2022-08-17T02:55:28.481Z,70.10
2022-08-17T02:57:56.222Z,70.30
2022-08-17T03:00:28.925Z,70.00
2022-08-17T03:02:57.606Z,70.10
2022-08-17T03:05:28.150Z,70.20
2022-08-17T03:07:55.466Z,70.30
2022-08-17T03:10:24.498Z,70.30
2022-08-17T03:12:53.177Z,70.40
2022-08-17T03:15:31.429Z,70.50
2022-08-17T03:17:59.753Z,70.70
2022-08-17T03:20:30.070Z,70.60
2022-08-17T03:23:01.845Z,70.80
2022-08-17T03:25:42.782Z,70.90
2022-08-17T03:28:12.206Z,71.10
2022-08-17T03:30:40.388Z,71.00
2022-08-17T03:33:10.074Z,71.20
2022-08-17T03:35:40.638Z,71.30
2022-08-17T03:38:10.742Z,71.40
2022-08-17T03:40:58.625Z,71.60
2022-08-17T03:43:29.848Z,71.60
2022-08-17T03:46:28.917Z,71.70
2022-08-17T03:49:25.694Z,71.60
2022-08-17T03:52:13.900Z,71.70
2022-08-17T03:55:00.779Z,71.60
2022-08-17T03:57:28.320Z,71.60
2022-08-17T03:59:55.916Z,71.70
2022-08-17T04:02:27.469Z,71.20
2022-08-17T04:04:54.644Z,71.40
2022-08-17T04:07:25.483Z,71.50
2022-08-17T04:09:52.527Z,71.60
2022-08-17T04:12:22.941Z,71.70
2022-08-17T04:14:53.307Z,71.90
2022-08-17T04:17:28.796Z,72.00
2022-08-17T04:19:56.053Z,72.20
2022-08-17T04:22:31.024Z,72.20
2022-08-17T04:25:15.750Z,72.30
2022-08-17T04:27:42.664Z,72.30
2022-08-17T04:30:10.904Z,72.50
2022-08-17T04:33:07.317Z,72.50
2022-08-17T04:35:43.074Z,72.90
2022-08-17T04:38:14.686Z,72.60
2022-08-17T04:41:00.486Z,72.60
2022-08-17T04:43:29.327Z,72.50
2022-08-17T04:46:04.856Z,72.40
2022-08-17T04:48:40.692Z,72.50
2022-08-17T04:51:23.319Z,72.40
2022-08-17T04:53:54.876Z,72.60
2022-08-17T04:56:25.739Z,72.30
2022-08-17T04:58:58.181Z,72.20
2022-08-17T05:01:28.134Z,72.20
2022-08-17T05:03:59.103Z,72.00
2022-08-17T05:06:28.738Z,72.60
2022-08-17T05:08:57.832Z,71.70
2022-08-17T05:11:27.343Z,71.50
2022-08-17T05:13:55.964Z,71.30
2022-08-17T05:16:25.530Z,71.00
2022-08-17T05:18:53.010Z,70.70
2022-08-17T05:21:22.863Z,70.30
2022-08-17T05:23:54.950Z,70.00
2022-08-17T05:26:26.110Z,69.80
2022-08-17T05:29:02.949Z,69.60
2022-08-17T05:31:31.361Z,69.40
2022-08-17T05:33:58.606Z,69.40
2022-08-17T05:36:42.199Z,69.00
2022-08-17T05:39:16.584Z,68.90
2022-08-17T05:42:09.499Z,68.60
2022-08-17T05:44:36.538Z,68.30
2022-08-17T05:47:05.863Z,68.00
2022-08-17T05:49:37.236Z,67.80
2022-08-17T05:52:43.437Z,67.30
2022-08-17T05:55:38.334Z,66.90
2022-08-17T05:58:33.493Z,66.30
2022-08-17T06:01:10.498Z,65.70
2022-08-17T06:03:58.277Z,65.40
2022-08-17T06:06:40.370Z,64.60
2022-08-17T06:09:33.858Z,64.40
2022-08-17T06:12:52.312Z,63.80
2022-08-17T06:15:56.749Z,63.70
2022-08-17T06:18:29.892Z,62.90
2022-08-17T06:21:07.526Z,62.20
2022-08-17T06:23:39.636Z,62.40
2022-08-17T06:26:16.572Z,61.30
2022-08-17T06:29:04.630Z,60.80
2022-08-17T06:31:38.518Z,61.00
2022-08-17T06:34:11.678Z,60.40
2022-08-17T06:37:07.431Z,59.90
2022-08-17T06:39:59.098Z,60.00
2022-08-17T06:43:06.769Z,59.70
2022-08-17T06:46:07.053Z,59.10
2022-08-17T06:48:47.431Z,59.20
2022-08-17T06:51:40.619Z,58.70
2022-08-17T06:54:32.775Z,58.30
2022-08-17T06:57:25.177Z,57.40
2022-08-17T07:00:28.731Z,56.50
2022-08-17T07:03:32.202Z,56.20
2022-08-17T07:06:21.558Z,56.00
2022-08-17T07:09:09.277Z,55.50
2022-08-17T07:12:10.513Z,54.70
2022-08-17T07:14:53.299Z,53.90
2022-08-17T07:17:47.699Z,53.70
2022-08-17T07:20:17.658Z,54.00
2022-08-17T07:23:08.754Z,53.60
2022-08-17T07:25:35.751Z,52.80
2022-08-17T07:28:07.772Z,52.80
2022-08-17T07:30:52.111Z,51.70
2022-08-17T07:33:36.954Z,49.60
2022-08-17T07:36:04.550Z,49.00
2022-08-17T07:38:35.726Z,49.40
2022-08-17T07:41:08.459Z,48.40
2022-08-17T07:43:41.674Z,47.60
2022-08-17T07:46:29.934Z,47.40
2022-08-17T07:49:34.314Z,46.50
2022-08-17T07:52:48.436Z,45.90
2022-08-17T07:54:57.693Z,45.60
2022-08-17T07:57:32.765Z,45.90
2022-08-17T08:00:03.168Z,44.00
2022-08-17T08:02:47.772Z,43.30
2022-08-17T08:05:49.330Z,42.20
2022-08-17T08:08:21.549Z,40.80
2022-08-17T08:11:07.869Z,39.90
2022-08-17T08:13:40.410Z,38.40
2022-08-17T08:16:24.679Z,40.70
2022-08-17T08:19:00.328Z,37.30
2022-08-17T08:21:58.970Z,36.80
2022-08-17T08:24:57.914Z,35.70
2022-08-17T08:28:01.499Z,34.50
2022-08-17T08:30:29.930Z,33.10
2022-08-17T08:33:17.104Z,32.80
2022-08-17T08:35:53.711Z,30.60
2022-08-17T08:38:49.605Z,30.10
2022-08-17T08:41:36.891Z,29.50
2022-08-17T08:45:00.851Z,28.80
2022-08-17T08:47:42.206Z,28.30
2022-08-17T08:50:43.546Z,28.00
2022-08-17T08:53:34.878Z,27.40
2022-08-17T08:56:29.418Z,26.40
2022-08-17T08:59:23.506Z,25.80
2022-08-17T09:02:10.216Z,25.60
2022-08-17T09:05:14.272Z,25.30
2022-08-17T09:08:25.687Z,24.50
2022-08-17T09:11:06.415Z,23.40
2022-08-17T09:14:00.696Z,23.10
2022-08-17T09:16:36.177Z,22.10
2022-08-17T09:19:34.415Z,22.20
2022-08-17T09:22:21.841Z,21.80
2022-08-17T09:25:03.232Z,21.90
2022-08-17T09:27:51.429Z,21.90
2022-08-17T09:30:20.273Z,21.00
2022-08-17T09:32:56.054Z,21.30
2022-08-17T09:35:36.940Z,20.90
2022-08-17T09:38:33.422Z,20.30
2022-08-17T09:41:19.561Z,20.20
2022-08-17T09:44:31.174Z,19.80
2022-08-17T09:47:12.762Z,18.90
2022-08-17T09:49:50.588Z,19.10
2022-08-17T09:52:28.618Z,18.80
2022-08-17T09:54:58.329Z,18.50
2022-08-17T09:58:00.976Z,18.40
2022-08-17T10:00:36.273Z,18.20
2022-08-17T10:03:45.993Z,17.70
2022-08-17T10:06:24.806Z,17.40
2022-08-17T10:09:16.620Z,17.00
2022-08-17T10:12:46.495Z,16.70
2022-08-17T10:15:30.794Z,16.20
2022-08-17T10:18:21.796Z,17.40
2022-08-17T10:21:31.352Z,16.40
2022-08-17T10:25:02.059Z,16.10
2022-08-17T10:27:52.973Z,16.00
2022-08-17T10:30:28.370Z,16.00
2022-08-17T10:33:04.287Z,15.80
2022-08-17T10:35:53.786Z,15.50
2022-08-17T10:38:47.353Z,15.60
2022-08-17T10:41:41.430Z,15.30
2022-08-17T10:44:36.984Z,15.30
2022-08-17T10:47:16.445Z,15.80
2022-08-17T10:49:54.013Z,15.30
2022-08-17T10:52:22.024Z,15.20
2022-08-17T10:54:51.929Z,15.30
2022-08-17T10:57:34.115Z,15.40
2022-08-17T11:00:41.594Z,15.40
2022-08-17T11:03:23.468Z,15.50
2022-08-17T11:06:28.169Z,15.40
2022-08-17T11:09:20.126Z,15.20
2022-08-17T11:12:20.725Z,15.00
2022-08-17T11:15:02.905Z,14.80
2022-08-17T11:17:53.523Z,14.40
2022-08-17T11:20:49.882Z,14.50
2022-08-17T11:24:03.166Z,14.80
2022-08-17T11:26:35.572Z,14.80
2022-08-17T11:29:15.697Z,14.70
2022-08-17T11:32:00.803Z,14.60
2022-08-17T11:34:30.903Z,14.50
2022-08-17T11:37:25.807Z,14.50
2022-08-17T11:40:33.033Z,14.70
2022-08-17T11:44:02.803Z,15.00
2022-08-17T11:47:18.424Z,14.70
2022-08-17T11:50:29.112Z,14.80
2022-08-17T11:52:56.177Z,14.80
2022-08-17T11:55:35.670Z,14.90
2022-08-17T11:58:29.303Z,15.10
2022-08-17T12:00:59.752Z,15.30
2022-08-17T12:03:55.605Z,16.10
2022-08-17T12:06:58.570Z,15.80
2022-08-17T12:09:30.961Z,15.70
2022-08-17T12:12:21.400Z,16.00
2022-08-17T12:15:11.522Z,16.10
2022-08-17T12:17:42.620Z,16.30
2022-08-17T12:20:28.100Z,16.50
2022-08-17T12:23:06.221Z,16.80
2022-08-17T12:26:01.337Z,17.20
2022-08-17T12:28:36.089Z,16.30
2022-08-17T12:31:06.724Z,16.30
2022-08-17T12:33:37.466Z,16.40
2022-08-17T12:36:08.788Z,15.70
2022-08-17T12:38:37.990Z,15.50
2022-08-17T12:41:31.726Z,15.50
2022-08-17T12:44:03.225Z,15.60
2022-08-17T12:47:04.821Z,16.00
2022-08-17T12:49:39.294Z,16.20
2022-08-17T12:52:25.463Z,16.40
2022-08-17T12:55:02.925Z,16.70
2022-08-17T12:57:35.734Z,16.90
2022-08-17T13:00:29.908Z,17.20
2022-08-17T13:03:07.978Z,16.70
2022-08-17T13:05:55.623Z,16.70
2022-08-17T13:08:36.451Z,16.50
2022-08-17T13:11:24.053Z,16.20
2022-08-17T13:13:56.435Z,16.40
2022-08-17T13:16:30.871Z,15.70
2022-08-17T13:19:20.343Z,15.60
2022-08-17T13:22:12.678Z,15.50
2022-08-17T13:24:53.274Z,15.40
2022-08-17T13:27:23.398Z,15.30
2022-08-17T13:29:59.515Z,15.20
2022-08-17T13:32:46.338Z,14.80
2022-08-17T13:35:44.208Z,14.70
2022-08-17T13:38:49.567Z,14.60
2022-08-17T13:41:35.306Z,14.30
2022-08-17T13:44:04.161Z,14.30
2022-08-17T13:46:33.250Z,14.60
2022-08-17T13:49:03.518Z,14.90
2022-08-17T13:51:50.276Z,15.00
2022-08-17T13:54:42.671Z,15.10
2022-08-17T13:57:25.431Z,15.10
2022-08-17T14:00:07.260Z,14.90
2022-08-17T14:02:35.128Z,15.00
2022-08-17T14:05:02.028Z,15.30
2022-08-17T14:07:39.890Z,15.50
2022-08-17T14:10:15.355Z,15.70
2022-08-17T14:12:44.654Z,16.00
2022-08-17T14:15:15.794Z,16.30
2022-08-17T14:17:42.806Z,16.40
2022-08-17T14:20:12.310Z,16.70
2022-08-17T14:22:45.113Z,17.10
2022-08-17T14:25:16.072Z,17.50
2022-08-17T14:27:52.442Z,18.00
2022-08-17T14:30:26.738Z,17.70
2022-08-17T14:32:57.907Z,17.70
2022-08-17T14:35:27.584Z,17.60
2022-08-17T14:37:55.010Z,17.60
2022-08-17T14:40:29.867Z,17.80
2022-08-17T14:42:57.688Z,18.40
2022-08-17T14:45:29.871Z,18.50
2022-08-17T14:48:03.972Z,18.50
2022-08-17T14:50:31.712Z,18.70
2022-08-17T14:52:59.245Z,18.70
2022-08-17T14:55:29.768Z,19.00
2022-08-17T14:57:56.873Z,18.90
2022-08-17T15:00:24.023Z,18.80
2022-08-17T15:02:58.307Z,18.80
2022-08-17T15:05:32.419Z,18.70
2022-08-17T15:08:04.712Z,18.70
2022-08-17T15:10:32.810Z,18.90
2022-08-17T15:13:00.546Z,18.90
2022-08-17T15:15:28.711Z,19.20
2022-08-17T15:17:56.144Z,19.70
2022-08-17T15:20:28.221Z,20.00
2022-08-17T15:22:57.316Z,19.70
2022-08-17T15:25:27.644Z,19.80
2022-08-17T15:27:55.887Z,19.90
2022-08-17T15:30:24.490Z,19.90
2022-08-17T15:32:55.207Z,19.90
2022-08-17T15:35:29.734Z,20.10
2022-08-17T15:38:10.706Z,20.30
2022-08-17T15:40:44.241Z,20.50
2022-08-17T15:43:28.334Z,20.50
2022-08-17T15:46:10.359Z,20.80
2022-08-17T15:48:41.912Z,20.90
2022-08-17T15:51:31.797Z,21.10
2022-08-17T15:54:19.298Z,21.50
2022-08-17T15:56:49.607Z,21.90
2022-08-17T15:59:16.696Z,22.00
2022-08-17T16:03:01.563Z,21.70
2022-08-17T16:04:31.622Z,21.90
2022-08-17T16:07:00.432Z,21.70
2022-08-17T16:09:27.667Z,21.70
2022-08-17T16:11:56.068Z,21.50
2022-08-17T16:14:32.342Z,21.40
2022-08-17T16:17:03.517Z,21.50
2022-08-17T16:19:30.776Z,21.80
2022-08-17T16:21:57.763Z,21.00
2022-08-17T16:24:25.251Z,21.10
2022-08-17T16:26:52.218Z,21.00
2022-08-17T16:29:19.401Z,21.00
2022-08-17T16:31:46.341Z,21.10
2022-08-17T16:34:18.000Z,21.10
2022-08-17T16:36:55.636Z,21.10
2022-08-17T16:39:29.454Z,21.10
2022-08-17T16:41:57.409Z,21.30
2022-08-17T16:44:29.072Z,22.10
2022-08-17T16:46:57.330Z,22.00
2022-08-17T16:49:35.952Z,22.20
2022-08-17T16:52:12.730Z,22.40
2022-08-17T16:54:44.425Z,22.50
2022-08-17T16:57:13.866Z,22.80
2022-08-17T16:59:45.028Z,23.10
2022-08-17T17:02:25.119Z,23.20
2022-08-17T17:05:19.431Z,23.30
2022-08-17T17:08:07.937Z,23.50
2022-08-17T17:10:43.783Z,23.90
2022-08-17T17:13:21.490Z,24.00
2022-08-17T17:16:26.687Z,23.80
2022-08-17T17:19:16.585Z,24.20
2022-08-17T17:22:23.391Z,24.50
2022-08-17T17:25:27.473Z,24.70
2022-08-17T17:28:14.504Z,25.00
2022-08-17T17:31:18.917Z,25.30
2022-08-17T17:34:04.937Z,25.90
2022-08-17T17:36:54.401Z,25.90
2022-08-17T17:39:41.320Z,26.00
2022-08-17T17:42:16.688Z,26.30
2022-08-17T17:45:03.997Z,26.60
2022-08-17T17:47:32.281Z,26.80
2022-08-17T17:50:01.934Z,26.90
2022-08-17T17:53:02.113Z,27.30
2022-08-17T17:56:00.192Z,27.70
2022-08-17T17:58:54.641Z,28.00
2022-08-17T18:01:34.204Z,28.40
2022-08-17T18:04:27.774Z,28.60
2022-08-17T18:07:12.195Z,29.20
2022-08-17T18:09:53.628Z,29.40
2022-08-17T18:12:43.966Z,29.60
2022-08-17T18:15:25.479Z,29.50
2022-08-17T18:18:14.519Z,29.80
2022-08-17T18:20:53.134Z,30.30
2022-08-17T18:23:27.679Z,30.00
2022-08-17T18:25:58.640Z,30.10
2022-08-17T18:28:39.700Z,30.30
2022-08-17T18:31:12.571Z,30.70
2022-08-17T18:33:44.518Z,30.80
2022-08-17T18:36:12.613Z,30.80
2022-08-17T18:38:42.806Z,30.90
2022-08-17T18:41:30.526Z,31.10
2022-08-17T18:44:32.703Z,31.40
2022-08-17T18:47:28.848Z,31.70
2022-08-17T18:50:00.606Z,31.60
2022-08-17T18:52:33.645Z,31.70
2022-08-17T18:55:16.257Z,32.10
2022-08-17T18:57:47.798Z,32.40
2022-08-17T19:00:35.920Z,32.90
2022-08-17T19:03:22.633Z,32.60
2022-08-17T19:05:57.398Z,32.90
2022-08-17T19:08:30.436Z,33.20
2022-08-17T19:11:22.461Z,33.50
2022-08-17T19:14:16.600Z,33.60
2022-08-17T19:17:00.794Z,33.80
2022-08-17T19:19:45.786Z,33.90
2022-08-17T19:22:31.028Z,34.50
2022-08-17T19:25:12.222Z,34.70
2022-08-17T19:28:25.682Z,34.90
2022-08-17T19:31:04.993Z,35.10
2022-08-17T19:33:32.578Z,35.20
2022-08-17T19:36:08.677Z,35.30
2022-08-17T19:39:13.881Z,35.70
2022-08-17T19:41:48.480Z,35.90
2022-08-17T19:44:49.086Z,35.70
2022-08-17T19:47:53.638Z,36.30
2022-08-17T19:50:41.764Z,36.20
2022-08-17T19:54:03.822Z,36.50
2022-08-17T19:56:40.990Z,36.70
2022-08-17T19:59:50.019Z,37.30
2022-08-17T20:02:57.514Z,37.10
2022-08-17T20:05:30.906Z,37.20
2022-08-17T20:08:17.733Z,37.10
2022-08-17T20:11:07.285Z,37.50
2022-08-17T20:13:48.947Z,37.40
2022-08-17T20:16:18.782Z,37.90
2022-08-17T20:19:09.845Z,37.90
2022-08-17T20:21:39.536Z,38.30
2022-08-17T20:24:28.243Z,38.20
2022-08-17T20:27:14.229Z,38.60
2022-08-17T20:30:13.198Z,38.60
2022-08-17T20:32:56.664Z,38.90
2022-08-17T20:35:39.012Z,38.90
2022-08-17T20:38:14.159Z,39.10
2022-08-17T20:41:04.057Z,38.90
2022-08-17T20:43:34.378Z,39.80
2022-08-17T20:46:38.266Z,39.30
2022-08-17T20:49:15.780Z,39.90
2022-08-17T20:52:01.797Z,39.80
2022-08-17T20:54:52.644Z,40.20
2022-08-17T20:57:32.199Z,40.20
2022-08-17T21:00:15.002Z,40.20
2022-08-17T21:02:50.654Z,40.00
2022-08-17T21:06:15.371Z,40.10
2022-08-17T21:08:58.962Z,40.50
2022-08-17T21:11:57.173Z,40.50
2022-08-17T21:14:41.303Z,40.30
2022-08-17T21:17:49.890Z,40.50
2022-08-17T21:20:41.944Z,40.40
2022-08-17T21:23:20.608Z,40.60
2022-08-17T21:26:05.938Z,40.50
2022-08-17T21:29:29.650Z,40.80
2022-08-17T21:32:05.429Z,40.80
2022-08-17T21:34:43.314Z,40.80
2022-08-17T21:37:18.973Z,40.80
2022-08-17T21:40:10.247Z,41.10
2022-08-17T21:42:49.113Z,41.00
2022-08-17T21:45:38.847Z,41.20
2022-08-17T21:48:24.342Z,41.30
2022-08-17T21:51:28.702Z,41.30
2022-08-17T21:54:14.746Z,41.50
2022-08-17T21:56:47.566Z,41.60
2022-08-17T21:59:32.165Z,41.60
2022-08-17T22:02:16.997Z,42.00
2022-08-17T22:04:58.617Z,41.90
2022-08-17T22:07:51.072Z,42.10
2022-08-17T22:10:42.090Z,42.50
2022-08-17T22:13:24.476Z,42.60
2022-08-17T22:16:27.754Z,42.70
2022-08-17T22:18:58.979Z,43.00
2022-08-17T22:21:26.790Z,42.80
2022-08-17T22:24:15.256Z,43.10
2022-08-17T22:27:11.088Z,43.40
2022-08-17T22:29:44.768Z,43.60
2022-08-17T22:32:41.635Z,43.50
2022-08-17T22:35:32.421Z,43.90
2022-08-17T22:38:18.551Z,44.00
2022-08-17T22:40:52.336Z,44.20
2022-08-17T22:43:26.660Z,44.20
2022-08-17T22:45:59.333Z,44.40
2022-08-17T22:48:29.373Z,44.40
2022-08-17T22:51:15.356Z,44.50
2022-08-17T22:54:11.423Z,45.00
2022-08-17T22:57:06.559Z,45.00
2022-08-17T22:59:51.223Z,44.90
2022-08-17T23:02:31.971Z,45.40
2022-08-17T23:05:13.997Z,45.60
2022-08-17T23:07:42.431Z,46.00
2022-08-17T23:10:12.189Z,45.80
2022-08-17T23:12:39.793Z,45.90
2022-08-17T23:15:32.882Z,46.30
2022-08-17T23:18:05.071Z,46.80
2022-08-17T23:20:36.433Z,46.60
2022-08-17T23:23:06.805Z,47.00
2022-08-17T23:25:35.408Z,47.00
2022-08-17T23:28:05.757Z,47.30
2022-08-17T23:30:39.378Z,47.50
2022-08-17T23:33:25.547Z,47.70
2022-08-17T23:35:54.081Z,47.90
2022-08-17T23:38:22.070Z,48.10
2022-08-17T23:40:49.401Z,48.10
2022-08-17T23:43:23.551Z,48.40
2022-08-17T23:45:59.531Z,48.60
2022-08-17T23:48:35.690Z,48.60
2022-08-17T23:51:20.278Z,48.80
2022-08-17T23:53:51.789Z,49.10
2022-08-17T23:56:24.808Z,49.20
2022-08-17T23:58:54.988Z,49.20
